IGO136H VOMM-VOBL
Flight info
| Callsign | IGO136H |
|---|---|
| Flight time | 0h 37m |
| Altitude | 20000 |
| Route | MMV W117 BIA |
| Aircraft | A20N/M-SDE2E3FGHIRWXY/LB1 |
Departure
| Time | 2026-05-06 10:38 |
|---|---|
| Airport | Chennai International Airport (VOMM) |
Arrival
| Time | 2026-05-06 11:16 |
|---|---|
| Airport | Kempegowda International Airport Bengaluru (VOBL) |
| Time | Latitude | Longitude | Altitude | Speed | Heading |
|---|---|---|---|---|---|
| 2026-05-06 10:03 | 12.98401 | 80.15988 | 44 ft | 0 kts | 335° |
| 2026-05-06 10:22 | 12.98392 | 80.15993 | 45 ft | 2 kts | 336° |
| 2026-05-06 10:22 | 12.98379 | 80.15999 | 45 ft | 2 kts | 335° |
| 2026-05-06 10:22 | 12.98370 | 80.16003 | 45 ft | 1 kts | 336° |
| 2026-05-06 10:23 | 12.98357 | 80.16010 | 45 ft | 2 kts | 319° |
| 2026-05-06 10:23 | 12.98346 | 80.16022 | 45 ft | 2 kts | 305° |
| 2026-05-06 10:23 | 12.98339 | 80.16035 | 45 ft | 2 kts | 290° |
| 2026-05-06 10:23 | 12.98335 | 80.16051 | 46 ft | 2 kts | 275° |
| 2026-05-06 10:24 | 12.98336 | 80.16066 | 46 ft | 2 kts | 260° |
| 2026-05-06 10:24 | 12.98338 | 80.16076 | 46 ft | 0 kts | 250° |
| 2026-05-06 10:24 | 12.98340 | 80.16081 | 46 ft | 0 kts | 248° |
| 2026-05-06 10:26 | 12.98337 | 80.16074 | 46 ft | 2 kts | 248° |
| 2026-05-06 10:27 | 12.98327 | 80.16048 | 46 ft | 5 kts | 248° |
| 2026-05-06 10:27 | 12.98311 | 80.16005 | 45 ft | 7 kts | 248° |
| 2026-05-06 10:27 | 12.98291 | 80.15955 | 45 ft | 8 kts | 248° |
| 2026-05-06 10:27 | 12.98293 | 80.15895 | 45 ft | 9 kts | 286° |
| 2026-05-06 10:28 | 12.98314 | 80.15825 | 45 ft | 10 kts | 287° |
| 2026-05-06 10:28 | 12.98336 | 80.15749 | 45 ft | 11 kts | 283° |
| 2026-05-06 10:28 | 12.98358 | 80.15664 | 44 ft | 12 kts | 285° |
| 2026-05-06 10:28 | 12.98381 | 80.15582 | 44 ft | 9 kts | 287° |
| 2026-05-06 10:29 | 12.98386 | 80.15562 | 44 ft | 0 kts | 284° |
| 2026-05-06 10:30 | 12.98387 | 80.15559 | 44 ft | 0 kts | 282° |
| 2026-05-06 10:30 | 12.98388 | 80.15554 | 44 ft | 0 kts | 283° |
| 2026-05-06 10:34 | 12.98391 | 80.15541 | 44 ft | 3 kts | 284° |
| 2026-05-06 10:35 | 12.98403 | 80.15505 | 43 ft | 6 kts | 287° |
| 2026-05-06 10:35 | 12.98414 | 80.15452 | 43 ft | 8 kts | 276° |
| 2026-05-06 10:35 | 12.98402 | 80.15394 | 43 ft | 8 kts | 250° |
| 2026-05-06 10:35 | 12.98391 | 80.15334 | 43 ft | 9 kts | 292° |
| 2026-05-06 10:36 | 12.98436 | 80.15351 | 43 ft | 5 kts | 70° |
| 2026-05-06 10:36 | 12.98437 | 80.15354 | 43 ft | 0 kts | 70° |
| 2026-05-06 10:37 | 12.98437 | 80.15355 | 43 ft | 1 kts | 70° |
| 2026-05-06 10:37 | 12.98518 | 80.15582 | 42 ft | 71 kts | 69° |
| 2026-05-06 10:37 | 12.98786 | 80.16283 | 42 ft | 135 kts | 69° |
| 2026-05-06 10:38 | 12.99175 | 80.17332 | 252 ft | 166 kts | 71° |
| 2026-05-06 10:38 | 12.99583 | 80.18424 | 951 ft | 162 kts | 72° |
| 2026-05-06 10:38 | 13.00139 | 80.19402 | 1629 ft | 167 kts | 40° |
| 2026-05-06 10:38 | 13.01266 | 80.19743 | 2091 ft | 180 kts | 1° |
| 2026-05-06 10:39 | 13.02577 | 80.19582 | 2432 ft | 197 kts | 353° |
| 2026-05-06 10:39 | 13.04012 | 80.19345 | 2729 ft | 218 kts | 354° |
| 2026-05-06 10:39 | 13.05584 | 80.19147 | 3119 ft | 236 kts | 356° |
| 2026-05-06 10:39 | 13.07305 | 80.18986 | 3559 ft | 254 kts | 358° |
| 2026-05-06 10:40 | 13.09138 | 80.18800 | 4016 ft | 273 kts | 349° |
| 2026-05-06 10:40 | 13.10865 | 80.17886 | 4675 ft | 286 kts | 316° |
| 2026-05-06 10:40 | 13.12081 | 80.16286 | 5409 ft | 289 kts | 306° |
| 2026-05-06 10:40 | 13.13205 | 80.14532 | 6278 ft | 291 kts | 304° |
| 2026-05-06 10:41 | 13.14311 | 80.12784 | 7175 ft | 292 kts | 305° |
| 2026-05-06 10:41 | 13.15427 | 80.11049 | 8044 ft | 295 kts | 306° |
| 2026-05-06 10:41 | 13.16578 | 80.09285 | 8928 ft | 297 kts | 306° |
| 2026-05-06 10:41 | 13.17502 | 80.07381 | 9770 ft | 303 kts | 284° |
| 2026-05-06 10:42 | 13.17479 | 80.05209 | 10496 ft | 314 kts | 256° |
| 2026-05-06 10:42 | 13.16705 | 80.03030 | 11056 ft | 328 kts | 248° |
| 2026-05-06 10:42 | 13.15803 | 80.00873 | 11777 ft | 334 kts | 248° |
| 2026-05-06 10:42 | 13.14896 | 79.98704 | 12581 ft | 337 kts | 248° |
| 2026-05-06 10:43 | 13.13989 | 79.96487 | 13362 ft | 340 kts | 249° |
| 2026-05-06 10:43 | 13.13079 | 79.94215 | 14122 ft | 345 kts | 249° |
| 2026-05-06 10:43 | 13.12164 | 79.91906 | 14915 ft | 347 kts | 249° |
| 2026-05-06 10:44 | 13.10333 | 79.87245 | 16422 ft | 354 kts | 249° |
| 2026-05-06 10:44 | 13.09394 | 79.84857 | 17153 ft | 357 kts | 249° |
| 2026-05-06 10:44 | 13.08477 | 79.82478 | 17849 ft | 361 kts | 252° |
| 2026-05-06 10:44 | 13.07979 | 79.79957 | 18504 ft | 362 kts | 269° |
| 2026-05-06 10:45 | 13.08197 | 79.77399 | 19166 ft | 363 kts | 284° |
| 2026-05-06 10:45 | 13.08805 | 79.74834 | 19608 ft | 365 kts | 287° |
| 2026-05-06 10:45 | 13.09472 | 79.72294 | 19754 ft | 367 kts | 287° |
| 2026-05-06 10:45 | 13.10137 | 79.69756 | 19758 ft | 366 kts | 287° |
| 2026-05-06 10:46 | 13.10786 | 79.67232 | 19762 ft | 367 kts | 287° |
| 2026-05-06 10:46 | 13.11433 | 79.64672 | 19764 ft | 367 kts | 287° |
| 2026-05-06 10:46 | 13.12068 | 79.62138 | 19765 ft | 367 kts | 286° |
| 2026-05-06 10:46 | 13.12703 | 79.59584 | 19766 ft | 367 kts | 286° |
| 2026-05-06 10:47 | 13.13340 | 79.57014 | 19766 ft | 367 kts | 286° |
| 2026-05-06 10:47 | 13.13978 | 79.54434 | 19766 ft | 367 kts | 286° |
| 2026-05-06 10:47 | 13.14612 | 79.51867 | 19766 ft | 367 kts | 286° |
| 2026-05-06 10:47 | 13.15242 | 79.49316 | 19766 ft | 367 kts | 286° |
| 2026-05-06 10:48 | 13.15873 | 79.46761 | 19766 ft | 367 kts | 286° |
| 2026-05-06 10:48 | 13.16507 | 79.44186 | 19767 ft | 367 kts | 286° |
| 2026-05-06 10:48 | 13.17139 | 79.41621 | 19766 ft | 367 kts | 286° |
| 2026-05-06 10:48 | 13.17766 | 79.39074 | 19766 ft | 367 kts | 286° |
| 2026-05-06 10:49 | 13.18399 | 79.36502 | 19767 ft | 367 kts | 286° |
| 2026-05-06 10:49 | 13.19034 | 79.33924 | 19766 ft | 367 kts | 286° |
| 2026-05-06 10:49 | 13.19661 | 79.31380 | 19766 ft | 367 kts | 286° |
| 2026-05-06 10:49 | 13.20295 | 79.28812 | 19766 ft | 367 kts | 286° |
| 2026-05-06 10:50 | 13.20922 | 79.26275 | 19766 ft | 367 kts | 286° |
| 2026-05-06 10:50 | 13.21559 | 79.23698 | 19766 ft | 367 kts | 286° |
| 2026-05-06 10:50 | 13.22190 | 79.21144 | 19766 ft | 367 kts | 286° |
| 2026-05-06 10:50 | 13.22831 | 79.18553 | 19766 ft | 367 kts | 286° |
| 2026-05-06 10:51 | 13.23456 | 79.16022 | 19766 ft | 367 kts | 286° |
| 2026-05-06 10:51 | 13.24089 | 79.13459 | 19766 ft | 366 kts | 286° |
| 2026-05-06 10:51 | 13.24718 | 79.10909 | 19767 ft | 366 kts | 286° |
| 2026-05-06 10:51 | 13.25343 | 79.08373 | 19767 ft | 365 kts | 286° |
| 2026-05-06 10:52 | 13.25976 | 79.05806 | 19767 ft | 365 kts | 286° |
| 2026-05-06 10:52 | 13.26598 | 79.03277 | 19767 ft | 365 kts | 286° |
| 2026-05-06 10:52 | 13.27223 | 79.00738 | 19767 ft | 364 kts | 286° |
| 2026-05-06 10:52 | 13.27849 | 78.98193 | 19767 ft | 364 kts | 286° |
| 2026-05-06 10:53 | 13.28478 | 78.95638 | 19766 ft | 364 kts | 286° |
| 2026-05-06 10:53 | 13.29020 | 78.93111 | 19765 ft | 364 kts | 281° |
| 2026-05-06 10:53 | 13.29272 | 78.90464 | 19766 ft | 366 kts | 273° |
| 2026-05-06 10:53 | 13.29212 | 78.87839 | 19769 ft | 367 kts | 268° |
| 2026-05-06 10:54 | 13.29037 | 78.85216 | 19767 ft | 367 kts | 267° |
| 2026-05-06 10:54 | 13.28840 | 78.82540 | 19767 ft | 367 kts | 267° |
| 2026-05-06 10:54 | 13.28647 | 78.79907 | 19766 ft | 367 kts | 267° |
| 2026-05-06 10:54 | 13.28459 | 78.77268 | 19766 ft | 367 kts | 267° |
| 2026-05-06 10:55 | 13.28276 | 78.74651 | 19766 ft | 367 kts | 267° |
| 2026-05-06 10:55 | 13.28093 | 78.72012 | 19766 ft | 367 kts | 267° |
| 2026-05-06 10:55 | 13.27910 | 78.69355 | 19767 ft | 367 kts | 267° |
| 2026-05-06 10:55 | 13.27730 | 78.66733 | 19769 ft | 367 kts | 267° |
| 2026-05-06 10:56 | 13.27548 | 78.64085 | 19775 ft | 367 kts | 267° |
| 2026-05-06 10:56 | 13.27367 | 78.61441 | 19783 ft | 367 kts | 267° |
| 2026-05-06 10:56 | 13.27186 | 78.58800 | 19793 ft | 368 kts | 267° |
| 2026-05-06 10:56 | 13.27007 | 78.56181 | 19803 ft | 368 kts | 267° |
| 2026-05-06 10:57 | 13.26824 | 78.53519 | 19814 ft | 368 kts | 267° |
| 2026-05-06 10:57 | 13.26643 | 78.50894 | 19826 ft | 368 kts | 267° |
| 2026-05-06 10:57 | 13.26460 | 78.48244 | 19838 ft | 368 kts | 267° |
| 2026-05-06 10:57 | 13.26277 | 78.45596 | 19849 ft | 368 kts | 267° |
| 2026-05-06 10:58 | 13.26096 | 78.42969 | 19858 ft | 369 kts | 267° |
| 2026-05-06 10:58 | 13.25909 | 78.40276 | 19865 ft | 369 kts | 267° |
| 2026-05-06 10:58 | 13.25728 | 78.37664 | 19869 ft | 369 kts | 267° |
| 2026-05-06 10:58 | 13.25545 | 78.35030 | 19871 ft | 369 kts | 267° |
| 2026-05-06 10:59 | 13.25360 | 78.32358 | 19873 ft | 369 kts | 267° |
| 2026-05-06 10:59 | 13.25175 | 78.29692 | 19874 ft | 369 kts | 267° |
| 2026-05-06 10:59 | 13.24991 | 78.27047 | 19874 ft | 369 kts | 267° |
| 2026-05-06 10:59 | 13.24806 | 78.24405 | 19874 ft | 369 kts | 267° |
| 2026-05-06 11:00 | 13.24620 | 78.21748 | 19667 ft | 368 kts | 267° |
| 2026-05-06 11:00 | 13.24437 | 78.19131 | 19409 ft | 366 kts | 267° |
| 2026-05-06 11:00 | 13.24256 | 78.16565 | 19172 ft | 364 kts | 267° |
| 2026-05-06 11:00 | 13.24068 | 78.13897 | 18932 ft | 363 kts | 267° |
| 2026-05-06 11:01 | 13.23887 | 78.11323 | 18635 ft | 362 kts | 267° |
| 2026-05-06 11:01 | 13.23704 | 78.08731 | 18272 ft | 360 kts | 267° |
| 2026-05-06 11:01 | 13.23522 | 78.06149 | 17883 ft | 357 kts | 267° |
| 2026-05-06 11:01 | 13.23341 | 78.03596 | 17487 ft | 355 kts | 267° |
| 2026-05-06 11:02 | 13.23164 | 78.01100 | 17094 ft | 352 kts | 267° |
| 2026-05-06 11:02 | 13.22984 | 77.98563 | 16690 ft | 350 kts | 267° |
| 2026-05-06 11:02 | 13.22805 | 77.96047 | 16287 ft | 347 kts | 267° |
| 2026-05-06 11:02 | 13.22630 | 77.93587 | 15892 ft | 345 kts | 267° |
| 2026-05-06 11:03 | 13.22453 | 77.91104 | 15492 ft | 342 kts | 267° |
| 2026-05-06 11:03 | 13.22280 | 77.88686 | 15101 ft | 340 kts | 267° |
| 2026-05-06 11:03 | 13.22105 | 77.86235 | 14705 ft | 337 kts | 267° |
| 2026-05-06 11:03 | 13.21932 | 77.83821 | 14313 ft | 335 kts | 267° |
| 2026-05-06 11:04 | 13.21762 | 77.81434 | 13925 ft | 333 kts | 267° |
| 2026-05-06 11:04 | 13.21593 | 77.79079 | 13541 ft | 330 kts | 267° |
| 2026-05-06 11:04 | 13.21422 | 77.76699 | 13152 ft | 328 kts | 267° |
| 2026-05-06 11:04 | 13.21254 | 77.74359 | 12770 ft | 326 kts | 267° |
| 2026-05-06 11:05 | 13.21090 | 77.72039 | 12387 ft | 324 kts | 269° |
| 2026-05-06 11:05 | 13.21283 | 77.69756 | 11978 ft | 319 kts | 287° |
| 2026-05-06 11:05 | 13.22188 | 77.67699 | 11588 ft | 314 kts | 306° |
| 2026-05-06 11:05 | 13.23493 | 77.65913 | 11220 ft | 311 kts | 310° |
| 2026-05-06 11:06 | 13.24862 | 77.64172 | 10843 ft | 309 kts | 310° |
| 2026-05-06 11:06 | 13.26216 | 77.62452 | 10470 ft | 307 kts | 310° |
| 2026-05-06 11:06 | 13.27545 | 77.60745 | 10101 ft | 305 kts | 310° |
| 2026-05-06 11:06 | 13.28851 | 77.59051 | 9891 ft | 297 kts | 310° |
| 2026-05-06 11:07 | 13.30115 | 77.57404 | 9758 ft | 290 kts | 310° |
| 2026-05-06 11:07 | 13.31355 | 77.55785 | 9595 ft | 279 kts | 310° |
| 2026-05-06 11:07 | 13.32535 | 77.54240 | 9562 ft | 265 kts | 310° |
| 2026-05-06 11:07 | 13.33642 | 77.52790 | 9522 ft | 251 kts | 310° |
| 2026-05-06 11:08 | 13.34681 | 77.51386 | 9407 ft | 247 kts | 303° |
| 2026-05-06 11:08 | 13.35130 | 77.49683 | 9076 ft | 249 kts | 265° |
| 2026-05-06 11:08 | 13.34543 | 77.48028 | 8799 ft | 249 kts | 232° |
| 2026-05-06 11:08 | 13.33199 | 77.46900 | 8532 ft | 248 kts | 205° |
| 2026-05-06 11:09 | 13.31633 | 77.46159 | 8289 ft | 248 kts | 202° |
| 2026-05-06 11:09 | 13.30017 | 77.45489 | 8031 ft | 246 kts | 199° |
| 2026-05-06 11:09 | 13.28386 | 77.44923 | 7786 ft | 245 kts | 195° |
| 2026-05-06 11:09 | 13.26745 | 77.44471 | 7544 ft | 244 kts | 192° |
| 2026-05-06 11:10 | 13.25067 | 77.44129 | 7457 ft | 242 kts | 187° |
| 2026-05-06 11:10 | 13.23392 | 77.44044 | 7240 ft | 242 kts | 164° |
| 2026-05-06 11:10 | 13.22001 | 77.44922 | 6959 ft | 232 kts | 125° |
| 2026-05-06 11:10 | 13.21246 | 77.46372 | 6747 ft | 228 kts | 106° |
| 2026-05-06 11:11 | 13.20928 | 77.47973 | 6527 ft | 227 kts | 94° |
| 2026-05-06 11:11 | 13.20864 | 77.49583 | 6305 ft | 225 kts | 89° |
| 2026-05-06 11:11 | 13.20871 | 77.51180 | 6175 ft | 215 kts | 89° |
| 2026-05-06 11:11 | 13.20876 | 77.52693 | 6004 ft | 209 kts | 89° |
| 2026-05-06 11:12 | 13.20868 | 77.54188 | 5809 ft | 201 kts | 90° |
| 2026-05-06 11:12 | 13.20853 | 77.55590 | 5547 ft | 194 kts | 90° |
| 2026-05-06 11:12 | 13.20836 | 77.56942 | 5250 ft | 183 kts | 90° |
| 2026-05-06 11:12 | 13.20821 | 77.58229 | 4981 ft | 173 kts | 90° |
| 2026-05-06 11:13 | 13.20807 | 77.59431 | 4749 ft | 161 kts | 90° |
| 2026-05-06 11:13 | 13.20795 | 77.60551 | 4545 ft | 146 kts | 90° |
| 2026-05-06 11:13 | 13.20785 | 77.61558 | 4338 ft | 138 kts | 90° |
| 2026-05-06 11:13 | 13.20775 | 77.62543 | 4173 ft | 137 kts | 90° |
| 2026-05-06 11:14 | 13.20765 | 77.63538 | 3999 ft | 137 kts | 90° |
| 2026-05-06 11:14 | 13.20755 | 77.64515 | 3821 ft | 136 kts | 89° |
| 2026-05-06 11:14 | 13.20742 | 77.65494 | 3641 ft | 136 kts | 90° |
| 2026-05-06 11:14 | 13.20733 | 77.66481 | 3461 ft | 136 kts | 89° |
| 2026-05-06 11:15 | 13.20722 | 77.67450 | 3277 ft | 135 kts | 89° |
| 2026-05-06 11:15 | 13.20716 | 77.68418 | 3082 ft | 134 kts | 90° |
| 2026-05-06 11:15 | 13.20710 | 77.69353 | 3009 ft | 115 kts | 90° |
| 2026-05-06 11:15 | 13.20704 | 77.69995 | 3009 ft | 65 kts | 92° |
| 2026-05-06 11:16 | 13.20700 | 77.70351 | 3009 ft | 38 kts | 94° |
| 2026-05-06 11:16 | 13.20628 | 77.70567 | 3009 ft | 22 kts | 122° |
| 2026-05-06 11:16 | 13.20595 | 77.70623 | 3009 ft | 4 kts | 121° |
| 2026-05-06 11:16 | 13.20585 | 77.70639 | 3009 ft | 0 kts | 121° |
| 2026-05-06 11:17 | 13.20582 | 77.70644 | 3009 ft | 1 kts | 121° |
| 2026-05-06 11:17 | 13.20575 | 77.70657 | 3009 ft | 2 kts | 120° |
| 2026-05-06 11:17 | 13.20560 | 77.70683 | 3009 ft | 5 kts | 120° |
| 2026-05-06 11:17 | 13.20540 | 77.70720 | 3009 ft | 6 kts | 119° |
| 2026-05-06 11:18 | 13.20527 | 77.70767 | 3009 ft | 7 kts | 93° |
| 2026-05-06 11:18 | 13.20527 | 77.70828 | 3009 ft | 8 kts | 90° |
| 2026-05-06 11:18 | 13.20500 | 77.70877 | 3009 ft | 9 kts | 167° |
| 2026-05-06 11:18 | 13.20441 | 77.70860 | 3009 ft | 9 kts | 245° |
| 2026-05-06 11:19 | 13.20440 | 77.70789 | 3009 ft | 8 kts | 263° |
| 2026-05-06 11:19 | 13.20406 | 77.70760 | 3009 ft | 0 kts | 177° |